createdAt,value
2018-12-31T00:00:46.969Z,9.23
2018-12-31T00:03:16.646Z,7.07
2018-12-31T00:05:46.307Z,7.27
2018-12-31T00:08:15.957Z,9.30
2018-12-31T00:10:45.696Z,8.40
2018-12-31T00:13:15.396Z,10.63
2018-12-31T00:15:45.039Z,9.07
2018-12-31T00:18:14.760Z,9.03
2018-12-31T00:20:44.415Z,9.03
2018-12-31T00:23:14.072Z,11.13
2018-12-31T00:25:43.782Z,12.83
2018-12-31T00:28:13.475Z,9.70
2018-12-31T00:30:44.058Z,11.00
2018-12-31T00:33:13.763Z,11.00
2018-12-31T00:35:43.418Z,10.30
2018-12-31T00:38:13.061Z,11.03
2018-12-31T00:40:42.764Z,9.27
2018-12-31T00:43:12.407Z,9.47
2018-12-31T00:45:42.053Z,9.07
2018-12-31T00:48:11.748Z,6.13
2018-12-31T00:50:41.391Z,6.03
2018-12-31T00:53:11.130Z,5.20
2018-12-31T00:55:41.207Z,6.07
2018-12-31T00:58:10.924Z,6.83
2018-12-31T01:00:40.690Z,7.97
2018-12-31T01:03:10.327Z,6.97
2018-12-31T01:05:40.039Z,7.03
2018-12-31T01:08:09.699Z,8.53
2018-12-31T01:10:40.337Z,9.10
2018-12-31T01:13:10.059Z,9.43
2018-12-31T01:15:39.790Z,10.07
2018-12-31T01:18:09.905Z,9.13
2018-12-31T01:20:39.582Z,10.50
2018-12-31T01:23:09.247Z,9.17
2018-12-31T01:25:38.902Z,10.43
2018-12-31T01:28:08.587Z,7.93
2018-12-31T01:30:38.234Z,8.10
2018-12-31T01:33:07.875Z,6.73
2018-12-31T01:35:37.542Z,7.63
2018-12-31T01:38:07.233Z,6.57
2018-12-31T01:40:36.853Z,6.90
2018-12-31T01:43:06.538Z,7.53
2018-12-31T01:45:36.213Z,6.27
2018-12-31T01:48:06.056Z,7.07
2018-12-31T01:50:35.694Z,7.93
2018-12-31T01:53:05.690Z,7.50
2018-12-31T01:55:35.384Z,7.13
2018-12-31T01:58:05.065Z,7.70
2018-12-31T02:00:34.718Z,6.57
2018-12-31T02:03:04.419Z,8.13
2018-12-31T02:05:34.469Z,6.77
2018-12-31T02:08:04.138Z,7.50
2018-12-31T02:10:33.917Z,6.87
2018-12-31T02:13:03.607Z,6.90
2018-12-31T02:15:33.255Z,7.73
2018-12-31T02:18:02.950Z,6.00
2018-12-31T02:20:32.601Z,6.57
2018-12-31T02:23:02.326Z,6.20
2018-12-31T02:25:32.027Z,5.80
2018-12-31T02:28:01.755Z,7.20
2018-12-31T02:30:31.591Z,6.20
2018-12-31T02:33:01.714Z,6.10
2018-12-31T02:35:31.559Z,6.00
2018-12-31T02:38:01.258Z,5.27
2018-12-31T02:40:30.897Z,5.07
2018-12-31T02:43:00.567Z,5.73
2018-12-31T02:45:30.367Z,5.73
2018-12-31T02:48:00.015Z,6.33
2018-12-31T02:50:29.673Z,5.97
2018-12-31T02:52:59.388Z,6.40
2018-12-31T02:55:29.029Z,6.57
2018-12-31T02:57:58.695Z,6.13
2018-12-31T03:00:29.266Z,6.67
2018-12-31T03:02:58.984Z,7.00
2018-12-31T03:05:28.647Z,7.10
2018-12-31T03:07:58.296Z,7.17
2018-12-31T03:10:28.004Z,6.73
2018-12-31T03:13:00.597Z,6.50
2018-12-31T03:15:30.315Z,5.43
2018-12-31T03:17:59.975Z,6.40
2018-12-31T03:20:29.628Z,5.90
2018-12-31T03:22:59.320Z,6.10
2018-12-31T03:25:28.969Z,5.70
2018-12-31T03:27:58.675Z,5.70
2018-12-31T03:30:28.375Z,5.30
2018-12-31T03:32:58.034Z,4.27
2018-12-31T03:35:27.699Z,4.10
2018-12-31T03:37:57.385Z,3.63
2018-12-31T03:40:27.447Z,3.70
2018-12-31T03:42:58.219Z,3.63
2018-12-31T03:45:27.893Z,3.30
2018-12-31T03:47:57.582Z,3.50
2018-12-31T03:50:27.237Z,4.13
2018-12-31T03:52:56.939Z,3.57
2018-12-31T03:55:26.571Z,3.40
2018-12-31T03:57:56.263Z,3.10
2018-12-31T04:00:26.452Z,3.63
2018-12-31T04:02:56.091Z,3.13
2018-12-31T04:05:25.733Z,2.60
2018-12-31T04:07:55.408Z,3.20
2018-12-31T04:10:25.085Z,3.07
2018-12-31T04:12:54.762Z,4.27
2018-12-31T04:15:24.431Z,3.30
2018-12-31T04:17:54.137Z,3.67
2018-12-31T04:20:24.237Z,2.77
2018-12-31T04:22:53.885Z,2.67
2018-12-31T04:25:23.574Z,4.33
2018-12-31T04:27:53.567Z,2.70
2018-12-31T04:30:23.213Z,2.57
2018-12-31T04:32:52.982Z,2.70
2018-12-31T04:35:22.704Z,2.37
2018-12-31T04:37:52.375Z,2.20
2018-12-31T04:40:22.006Z,2.80
2018-12-31T04:42:51.673Z,2.50
2018-12-31T04:45:21.392Z,4.10
2018-12-31T04:47:51.121Z,3.40
2018-12-31T04:50:20.776Z,2.40
2018-12-31T04:52:50.469Z,2.50
2018-12-31T04:55:20.111Z,2.50
2018-12-31T04:57:49.778Z,2.77
2018-12-31T05:00:19.961Z,2.53
2018-12-31T05:02:49.663Z,2.47
2018-12-31T05:05:19.366Z,3.37
2018-12-31T05:07:49.022Z,1.90
2018-12-31T05:10:18.763Z,2.00
2018-12-31T05:12:48.427Z,2.97
2018-12-31T05:15:18.242Z,2.67
2018-12-31T05:17:47.907Z,2.50
2018-12-31T05:20:17.642Z,2.97
2018-12-31T05:22:47.318Z,2.30
2018-12-31T05:25:18.054Z,2.50
2018-12-31T05:27:47.790Z,1.70
2018-12-31T05:30:17.494Z,2.40
2018-12-31T05:32:47.161Z,1.50
2018-12-31T05:35:16.815Z,1.30
2018-12-31T05:37:46.524Z,3.00
2018-12-31T05:40:16.171Z,3.03
2018-12-31T05:42:45.844Z,1.97
2018-12-31T05:45:15.530Z,1.43
2018-12-31T05:47:45.271Z,1.97
2018-12-31T05:50:14.933Z,2.20
2018-12-31T05:52:45.048Z,2.27
2018-12-31T05:55:14.744Z,1.80
2018-12-31T05:57:44.425Z,2.00
2018-12-31T06:00:14.140Z,3.17
2018-12-31T06:02:43.907Z,3.43
2018-12-31T06:05:13.607Z,6.20
2018-12-31T06:07:43.242Z,1.93
2018-12-31T06:10:12.959Z,1.47
2018-12-31T06:12:42.647Z,1.97
2018-12-31T06:15:12.384Z,1.83
2018-12-31T06:17:42.031Z,1.37
2018-12-31T06:20:11.732Z,2.97
2018-12-31T06:22:41.811Z,1.57
2018-12-31T06:25:11.486Z,2.50
2018-12-31T06:27:41.204Z,2.87
2018-12-31T06:30:11.145Z,2.37
2018-12-31T06:32:41.862Z,3.00
2018-12-31T06:35:11.553Z,2.47
2018-12-31T06:37:41.216Z,1.90
2018-12-31T06:40:10.879Z,1.73
2018-12-31T06:42:40.966Z,2.90
2018-12-31T06:45:10.614Z,2.07
2018-12-31T06:47:40.291Z,2.10
2018-12-31T06:50:10.043Z,3.03
2018-12-31T06:52:39.707Z,2.10
2018-12-31T06:55:09.347Z,2.40
2018-12-31T06:57:39.071Z,3.17
2018-12-31T07:00:08.715Z,2.83
2018-12-31T07:02:39.258Z,1.77
2018-12-31T07:05:08.949Z,1.97
2018-12-31T07:07:38.651Z,1.80
2018-12-31T07:10:08.711Z,2.20
2018-12-31T07:12:38.391Z,2.10
2018-12-31T07:15:08.117Z,2.97
2018-12-31T07:17:37.820Z,3.00
2018-12-31T07:20:08.011Z,2.40
2018-12-31T07:22:38.024Z,2.67
2018-12-31T07:25:07.680Z,2.83
2018-12-31T07:27:37.331Z,2.17
2018-12-31T07:30:07.286Z,4.23
2018-12-31T07:32:36.943Z,2.73
2018-12-31T07:35:06.613Z,5.17
2018-12-31T07:37:36.287Z,2.13
2018-12-31T07:40:06.450Z,4.40
2018-12-31T07:42:37.270Z,2.90
2018-12-31T07:45:07.019Z,2.57
2018-12-31T07:47:36.650Z,2.73
2018-12-31T07:50:08.976Z,2.50
2018-12-31T07:52:38.665Z,3.97
2018-12-31T07:55:08.297Z,3.10
2018-12-31T07:57:37.934Z,4.23
2018-12-31T08:00:08.397Z,2.73
2018-12-31T08:02:38.451Z,4.77
2018-12-31T08:05:08.113Z,4.90
2018-12-31T08:07:37.881Z,3.77
2018-12-31T08:10:07.569Z,3.73
2018-12-31T08:12:37.255Z,2.57
2018-12-31T08:15:07.449Z,2.47
2018-12-31T08:17:37.130Z,2.53
2018-12-31T08:20:06.817Z,4.53
2018-12-31T08:22:36.462Z,4.43
2018-12-31T08:25:06.107Z,6.07
2018-12-31T08:27:35.840Z,4.07
2018-12-31T08:30:05.855Z,2.60
2018-12-31T08:32:35.510Z,5.27
2018-12-31T08:35:05.941Z,5.13
2018-12-31T08:37:35.604Z,3.90
2018-12-31T08:40:05.768Z,2.97
2018-12-31T08:42:35.505Z,3.70
2018-12-31T08:45:05.272Z,4.97
2018-12-31T08:47:34.931Z,3.23
2018-12-31T08:50:04.647Z,3.33
2018-12-31T08:52:34.311Z,3.93
2018-12-31T08:55:04.968Z,3.43
2018-12-31T08:57:34.679Z,4.50
2018-12-31T09:00:04.551Z,3.23
2018-12-31T09:02:34.229Z,4.40
2018-12-31T09:05:04.162Z,5.77
2018-12-31T09:07:33.854Z,4.83
2018-12-31T09:10:03.552Z,3.80
2018-12-31T09:12:33.252Z,6.40
2018-12-31T09:15:02.906Z,4.40
2018-12-31T09:17:32.613Z,5.13
2018-12-31T09:20:02.294Z,3.97
2018-12-31T09:22:31.963Z,4.77
2018-12-31T09:25:02.199Z,5.67
2018-12-31T09:27:33.105Z,8.73
2018-12-31T09:30:02.764Z,4.70
2018-12-31T09:32:32.434Z,4.57
2018-12-31T09:35:02.142Z,4.90
2018-12-31T09:37:31.843Z,4.07
2018-12-31T09:40:01.496Z,4.20
2018-12-31T09:42:31.213Z,5.23
2018-12-31T09:45:00.872Z,3.90
2018-12-31T09:47:30.516Z,5.50
2018-12-31T09:50:00.252Z,4.57
2018-12-31T09:52:29.847Z,5.67
2018-12-31T09:55:00.124Z,6.40
2018-12-31T09:57:31.770Z,4.13
2018-12-31T10:00:02.959Z,5.30
2018-12-31T10:02:32.605Z,4.53
2018-12-31T10:05:02.344Z,5.33
2018-12-31T10:07:32.259Z,5.60
2018-12-31T10:10:03.943Z,5.40
2018-12-31T10:12:34.878Z,4.93
2018-12-31T10:15:04.962Z,7.27
2018-12-31T10:17:34.663Z,6.87
2018-12-31T10:20:04.705Z,4.90
2018-12-31T10:22:34.399Z,5.30
2018-12-31T10:25:04.057Z,6.20
2018-12-31T10:27:34.751Z,4.17
2018-12-31T10:30:05.046Z,9.23
2018-12-31T10:32:35.168Z,3.80
2018-12-31T10:35:05.783Z,4.30
2018-12-31T10:37:36.071Z,4.13
2018-12-31T10:40:07.225Z,5.10
2018-12-31T10:42:36.969Z,4.57
2018-12-31T10:45:06.699Z,5.23
2018-12-31T10:47:38.567Z,8.50
2018-12-31T10:50:08.384Z,7.37
2018-12-31T10:52:38.038Z,5.27
2018-12-31T10:55:09.506Z,7.80
2018-12-31T10:57:39.245Z,6.97
2018-12-31T11:00:09.444Z,5.73
2018-12-31T11:02:39.100Z,5.93
2018-12-31T11:05:08.792Z,4.87
2018-12-31T11:07:38.470Z,7.50
2018-12-31T11:10:08.294Z,9.97
2018-12-31T11:12:38.439Z,10.57
2018-12-31T11:15:08.105Z,9.43
2018-12-31T11:17:38.773Z,6.03
2018-12-31T11:20:08.493Z,3.70
2018-12-31T11:22:38.147Z,4.07
2018-12-31T11:25:07.794Z,4.43
2018-12-31T11:27:37.475Z,4.17
2018-12-31T11:30:07.711Z,6.57
2018-12-31T11:32:37.417Z,7.77
2018-12-31T11:35:08.595Z,5.53
2018-12-31T11:37:38.256Z,8.23
2018-12-31T11:40:08.706Z,4.37
2018-12-31T11:42:38.383Z,4.53
2018-12-31T11:45:08.451Z,8.30
2018-12-31T11:47:38.126Z,6.47
2018-12-31T11:50:07.818Z,5.80
2018-12-31T11:52:37.475Z,6.50
2018-12-31T11:55:07.192Z,6.40
2018-12-31T11:57:37.323Z,6.13
2018-12-31T12:00:08.711Z,5.30
2018-12-31T12:02:38.393Z,5.70
2018-12-31T12:05:08.062Z,6.40
2018-12-31T12:07:37.830Z,6.47
2018-12-31T12:10:08.903Z,4.93
2018-12-31T12:12:38.541Z,7.33
2018-12-31T12:15:08.338Z,5.07
2018-12-31T12:17:38.017Z,6.57
2018-12-31T12:20:10.066Z,7.00
2018-12-31T12:22:39.815Z,6.50
2018-12-31T12:25:09.457Z,6.50
2018-12-31T12:27:39.123Z,10.13
2018-12-31T12:30:09.657Z,5.70
2018-12-31T12:32:39.792Z,6.47
2018-12-31T12:35:09.407Z,5.33
2018-12-31T12:37:39.091Z,6.67
2018-12-31T12:40:08.809Z,5.07
2018-12-31T12:42:38.450Z,5.60
2018-12-31T12:45:08.720Z,5.87
2018-12-31T12:47:38.447Z,6.67
2018-12-31T12:50:08.122Z,6.93
2018-12-31T12:52:37.815Z,6.97
2018-12-31T12:55:07.472Z,5.60
2018-12-31T12:57:37.130Z,4.57
2018-12-31T13:00:07.437Z,5.83
2018-12-31T13:02:37.146Z,6.63
2018-12-31T13:05:06.822Z,4.73
2018-12-31T13:07:37.076Z,5.53
2018-12-31T13:10:07.336Z,6.33
2018-12-31T13:12:37.995Z,7.07
2018-12-31T13:15:07.779Z,5.17
2018-12-31T13:17:37.424Z,5.30
2018-12-31T13:20:07.157Z,6.23
2018-12-31T13:22:36.805Z,6.93
2018-12-31T13:25:06.665Z,6.90
2018-12-31T13:27:36.320Z,7.53
2018-12-31T13:30:06.458Z,7.63
2018-12-31T13:32:36.137Z,6.57
2018-12-31T13:35:06.066Z,10.57
2018-12-31T13:37:35.817Z,8.63
2018-12-31T13:40:05.600Z,7.70
2018-12-31T13:42:36.423Z,7.60
2018-12-31T13:45:06.187Z,10.37
2018-12-31T13:47:35.851Z,12.03
2018-12-31T13:50:06.542Z,13.03
2018-12-31T13:52:38.855Z,10.20
2018-12-31T13:55:09.521Z,9.90
2018-12-31T13:57:39.293Z,4.87
2018-12-31T14:00:09.994Z,6.63
2018-12-31T14:02:39.876Z,7.37
2018-12-31T14:05:10.073Z,5.67
2018-12-31T14:07:39.728Z,5.27
2018-12-31T14:10:09.406Z,8.33
2018-12-31T14:12:39.127Z,8.30
2018-12-31T14:15:08.785Z,6.00
2018-12-31T14:17:38.524Z,7.13
2018-12-31T14:20:08.221Z,7.43
2018-12-31T14:22:37.878Z,7.47
2018-12-31T14:25:08.135Z,11.47
2018-12-31T14:27:39.126Z,10.17
2018-12-31T14:30:11.837Z,8.30
2018-12-31T14:32:41.494Z,13.40
2018-12-31T14:35:17.412Z,15.90
2018-12-31T14:37:47.073Z,16.23
2018-12-31T14:40:16.723Z,12.90
2018-12-31T14:42:46.411Z,13.93
2018-12-31T14:45:18.610Z,16.60
2018-12-31T14:47:48.263Z,34.90
2018-12-31T14:50:25.728Z,12.93
2018-12-31T14:52:55.399Z,18.33
2018-12-31T14:55:25.098Z,46.17
2018-12-31T14:57:54.824Z,224.20
2018-12-31T15:00:24.587Z,112.60
2018-12-31T15:03:00.513Z,43.97
2018-12-31T15:05:37.640Z,414.70
2018-12-31T15:08:07.330Z,189.17
2018-12-31T15:10:37.647Z,294.27
2018-12-31T15:13:07.386Z,43.47
2018-12-31T15:15:37.091Z,41.40
2018-12-31T15:18:06.788Z,84.63
2018-12-31T15:20:36.486Z,59.30
2018-12-31T15:23:06.181Z,27.30
2018-12-31T15:25:35.875Z,44.97
2018-12-31T15:28:05.522Z,38.77
2018-12-31T15:30:35.268Z,45.90
2018-12-31T15:33:06.006Z,90.00
2018-12-31T15:35:35.697Z,131.83
2018-12-31T15:38:06.537Z,109.33
2018-12-31T15:40:36.205Z,68.87
2018-12-31T15:43:05.904Z,78.80
2018-12-31T15:45:36.288Z,29.97
2018-12-31T15:48:05.989Z,26.10
2018-12-31T15:50:35.699Z,42.67
2018-12-31T15:53:05.354Z,51.77
2018-12-31T15:55:35.005Z,41.17
2018-12-31T15:58:04.907Z,36.10
2018-12-31T16:00:34.589Z,71.07
2018-12-31T16:03:04.284Z,44.37
2018-12-31T16:05:35.057Z,49.13
2018-12-31T16:08:04.755Z,53.03
2018-12-31T16:10:35.722Z,64.13
2018-12-31T16:13:06.987Z,44.90
2018-12-31T16:15:36.698Z,36.40
2018-12-31T16:18:06.412Z,30.30
2018-12-31T16:20:36.695Z,29.50
2018-12-31T16:23:06.375Z,32.80
2018-12-31T16:25:36.025Z,33.20
2018-12-31T16:28:07.321Z,38.73
2018-12-31T16:30:37.417Z,34.17
2018-12-31T16:33:07.681Z,35.23
2018-12-31T16:35:37.397Z,26.30
2018-12-31T16:38:07.087Z,29.73
2018-12-31T16:40:36.803Z,30.70
2018-12-31T16:43:06.442Z,35.97
2018-12-31T16:45:36.507Z,49.63
2018-12-31T16:48:06.211Z,46.90
2018-12-31T16:50:35.867Z,46.07
2018-12-31T16:53:05.591Z,52.10
2018-12-31T16:55:35.286Z,50.23
2018-12-31T16:58:05.976Z,53.67
2018-12-31T17:00:43.179Z,54.97
2018-12-31T17:03:14.143Z,47.13
2018-12-31T17:05:43.886Z,47.23
2018-12-31T17:08:17.875Z,45.17
2018-12-31T17:10:47.562Z,43.87
2018-12-31T17:13:17.212Z,49.70
2018-12-31T17:15:46.950Z,44.37
2018-12-31T17:18:16.592Z,47.30
2018-12-31T17:20:46.307Z,44.87
2018-12-31T17:23:16.106Z,60.37
2018-12-31T17:25:45.815Z,64.20
2018-12-31T17:28:17.850Z,97.43
2018-12-31T17:30:47.379Z,77.60
2018-12-31T17:33:17.081Z,62.83
2018-12-31T17:35:46.883Z,56.33
2018-12-31T17:38:16.877Z,96.80
2018-12-31T17:40:46.575Z,106.27
2018-12-31T17:43:16.503Z,92.00
2018-12-31T17:45:46.172Z,97.83
2018-12-31T17:48:15.839Z,103.83
2018-12-31T17:50:45.524Z,106.30
2018-12-31T17:53:15.206Z,109.07
2018-12-31T17:55:44.905Z,113.73
2018-12-31T17:58:14.604Z,114.70
2018-12-31T18:00:44.267Z,130.30
2018-12-31T18:03:14.489Z,130.13
2018-12-31T18:05:44.172Z,120.33
2018-12-31T18:08:13.840Z,126.17
2018-12-31T18:10:43.547Z,122.70
2018-12-31T18:13:13.345Z,121.13
2018-12-31T18:15:43.522Z,107.77
2018-12-31T18:18:13.515Z,114.10
2018-12-31T18:20:43.251Z,112.13
2018-12-31T18:23:12.930Z,118.57
2018-12-31T18:25:42.591Z,105.73
2018-12-31T18:28:12.273Z,115.47
2018-12-31T18:30:42.557Z,96.73
2018-12-31T18:33:12.288Z,76.87
2018-12-31T18:35:41.990Z,65.97
2018-12-31T18:38:11.668Z,62.13
2018-12-31T18:40:41.394Z,56.50
2018-12-31T18:43:11.062Z,56.30
2018-12-31T18:45:40.726Z,67.63
2018-12-31T18:48:10.406Z,64.80
2018-12-31T18:50:40.107Z,70.60
2018-12-31T18:53:09.752Z,62.33
2018-12-31T18:55:39.422Z,63.20
2018-12-31T18:58:09.131Z,64.23
2018-12-31T19:00:38.786Z,69.47
2018-12-31T19:03:08.413Z,61.83
2018-12-31T19:05:39.019Z,57.90
2018-12-31T19:08:08.745Z,55.73
2018-12-31T19:10:40.707Z,65.17
2018-12-31T19:13:10.400Z,76.57
2018-12-31T19:15:40.097Z,72.80
2018-12-31T19:18:10.257Z,71.47
2018-12-31T19:20:39.897Z,96.97
2018-12-31T19:23:09.588Z,91.23
2018-12-31T19:25:39.819Z,82.60
2018-12-31T19:28:09.498Z,72.63
2018-12-31T19:30:39.585Z,71.00
2018-12-31T19:33:09.289Z,104.60
2018-12-31T19:35:38.971Z,120.57
2018-12-31T19:38:08.629Z,105.87
2018-12-31T19:40:38.348Z,85.23
2018-12-31T19:43:08.494Z,73.63
2018-12-31T19:45:38.212Z,62.33
2018-12-31T19:48:08.611Z,49.27
2018-12-31T19:50:38.258Z,42.27
2018-12-31T19:53:07.971Z,34.50
2018-12-31T19:55:37.627Z,37.90
2018-12-31T19:58:07.304Z,54.90
2018-12-31T20:00:36.983Z,71.13
2018-12-31T20:03:06.660Z,42.30
2018-12-31T20:05:36.323Z,34.83
2018-12-31T20:08:06.036Z,37.40
2018-12-31T20:10:35.686Z,31.37
2018-12-31T20:13:05.344Z,36.10
2018-12-31T20:15:35.055Z,27.83
2018-12-31T20:18:04.719Z,27.43
2018-12-31T20:20:34.367Z,44.20
2018-12-31T20:23:04.056Z,44.27
2018-12-31T20:25:33.723Z,71.83
2018-12-31T20:28:03.410Z,146.83
2018-12-31T20:30:33.076Z,151.80
2018-12-31T20:33:02.775Z,83.50
2018-12-31T20:35:32.436Z,50.60
2018-12-31T20:38:02.099Z,48.57
2018-12-31T20:40:31.816Z,37.37
2018-12-31T20:43:01.573Z,31.60
2018-12-31T20:45:31.837Z,41.43
2018-12-31T20:48:02.091Z,52.83
2018-12-31T20:50:31.897Z,37.50
2018-12-31T20:53:01.589Z,39.47
2018-12-31T20:55:31.254Z,37.03
2018-12-31T20:58:01.748Z,44.23
2018-12-31T21:00:31.440Z,51.33
2018-12-31T21:03:01.489Z,62.27
2018-12-31T21:05:31.147Z,58.17
2018-12-31T21:08:00.802Z,67.67
2018-12-31T21:10:31.069Z,60.50
2018-12-31T21:13:00.799Z,64.63
2018-12-31T21:15:30.457Z,75.23
2018-12-31T21:18:00.097Z,56.43
2018-12-31T21:20:29.804Z,40.10
2018-12-31T21:23:00.587Z,36.57
2018-12-31T21:25:30.245Z,26.63
2018-12-31T21:27:59.937Z,32.47
2018-12-31T21:30:29.587Z,35.10
2018-12-31T21:32:59.235Z,43.23
2018-12-31T21:35:29.053Z,47.70
2018-12-31T21:37:58.762Z,41.33
2018-12-31T21:40:28.419Z,42.20
2018-12-31T21:42:58.094Z,44.43
2018-12-31T21:45:28.765Z,50.33
2018-12-31T21:47:58.660Z,50.53
2018-12-31T21:50:28.334Z,37.50
2018-12-31T21:52:57.999Z,36.57
2018-12-31T21:55:27.709Z,36.13
2018-12-31T21:57:57.356Z,33.10
2018-12-31T22:00:27.828Z,32.27
2018-12-31T22:02:57.486Z,32.40
2018-12-31T22:05:27.164Z,39.50
2018-12-31T22:07:56.864Z,35.83
2018-12-31T22:10:26.515Z,28.50
2018-12-31T22:12:56.175Z,32.73
2018-12-31T22:15:25.887Z,31.33
2018-12-31T22:17:55.539Z,33.75
2018-12-31T22:20:25.233Z,31.53
2018-12-31T22:22:54.920Z,29.40
2018-12-31T22:25:24.638Z,22.13
2018-12-31T22:27:54.436Z,27.40
2018-12-31T22:30:24.184Z,29.27
2018-12-31T22:32:53.888Z,27.80
2018-12-31T22:35:23.550Z,30.57
2018-12-31T22:37:53.944Z,28.23
2018-12-31T22:40:23.654Z,39.63
2018-12-31T22:42:53.936Z,60.57
2018-12-31T22:45:23.633Z,53.63
2018-12-31T22:47:53.706Z,45.70
2018-12-31T22:50:23.371Z,37.70
2018-12-31T22:52:53.078Z,33.37
2018-12-31T22:55:22.751Z,38.10
2018-12-31T22:57:52.481Z,33.40
2018-12-31T23:00:27.895Z,32.67
2018-12-31T23:02:57.658Z,36.40
2018-12-31T23:05:28.160Z,99.37
2018-12-31T23:07:59.152Z,111.53
2018-12-31T23:10:28.868Z,82.57
2018-12-31T23:12:58.529Z,79.13
2018-12-31T23:15:29.667Z,65.87
2018-12-31T23:18:01.572Z,61.23
2018-12-31T23:20:31.251Z,61.50
2018-12-31T23:23:01.058Z,72.60
2018-12-31T23:25:30.769Z,77.87
2018-12-31T23:28:00.421Z,77.23
2018-12-31T23:30:30.110Z,76.00
2018-12-31T23:32:59.774Z,70.07
2018-12-31T23:35:30.289Z,72.23
2018-12-31T23:38:00.849Z,72.77
2018-12-31T23:40:30.518Z,65.70
2018-12-31T23:43:06.267Z,57.60
2018-12-31T23:45:31.580Z,62.83
2018-12-31T23:48:02.224Z,57.90
2018-12-31T23:50:32.005Z,58.70
2018-12-31T23:53:01.669Z,57.07
2018-12-31T23:55:31.363Z,58.13
2018-12-31T23:58:01.270Z,57.50
